sensor_id;sensor_type;location;lat;lon;timestamp;pressure;altitude;pressure_sealevel;temperature;humidity
61744;BME280;48718;54.994;73.352;2022-08-20T12:19:11;100891.59;;;25.69;42.56
61744;BME280;48718;54.994;73.352;2022-08-20T12:21:38;100883.44;;;25.54;41.24
61744;BME280;48718;54.994;73.352;2022-08-20T12:24:15;100884.16;;;25.14;41.94
61744;BME280;48718;54.994;73.352;2022-08-20T12:28:41;100887.03;;;24.83;42.15
61744;BME280;48718;54.994;73.352;2022-08-20T12:31:14;100880.50;;;24.58;42.50
61744;BME280;48718;54.994;73.352;2022-08-20T12:33:47;100872.31;;;24.38;42.22
61744;BME280;48718;54.994;73.352;2022-08-20T12:36:14;100875.34;;;24.26;42.39
61744;BME280;48718;54.994;73.352;2022-08-20T12:38:51;100880.28;;;24.13;42.81
61744;BME280;48718;54.994;73.352;2022-08-20T12:41:18;100884.34;;;24.06;43.38
61744;BME280;48718;54.994;73.352;2022-08-20T12:43:45;100887.63;;;23.97;43.34
61744;BME280;48718;54.994;73.352;2022-08-20T12:46:17;100887.63;;;23.92;43.12
61744;BME280;48718;54.994;73.352;2022-08-20T12:48:44;100881.03;;;23.88;43.31
61744;BME280;48718;54.994;73.352;2022-08-20T12:51:11;100885.13;;;23.86;43.89
61744;BME280;48718;54.994;73.352;2022-08-20T12:53:41;100880.22;;;23.82;43.46
61744;BME280;48718;54.994;73.352;2022-08-20T12:56:07;100875.84;;;23.81;43.63
61744;BME280;48718;54.994;73.352;2022-08-20T12:58:39;100878.84;;;23.80;43.59
61744;BME280;48718;54.994;73.352;2022-08-20T13:01:06;100881.03;;;23.78;44.23
61744;BME280;48718;54.994;73.352;2022-08-20T13:03:33;100876.66;;;23.77;43.81
61744;BME280;48718;54.994;73.352;2022-08-20T13:06:00;100873.94;;;23.77;44.17
61744;BME280;48718;54.994;73.352;2022-08-20T13:08:36;100875.56;;;23.78;44.21
61744;BME280;48718;54.994;73.352;2022-08-20T13:11:02;100873.94;;;23.77;44.01
61744;BME280;48718;54.994;73.352;2022-08-20T13:13:29;100869.28;;;23.77;44.48
61744;BME280;48718;54.994;73.352;2022-08-20T13:15:55;100870.09;;;23.78;44.29
61744;BME280;48718;54.994;73.352;2022-08-20T13:18:22;100871.75;;;23.79;44.29
61744;BME280;48718;54.994;73.352;2022-08-20T13:20:53;100870.66;;;23.80;44.42
61744;BME280;48718;54.994;73.352;2022-08-20T13:23:20;100870.66;;;23.85;44.12
61744;BME280;48718;54.994;73.352;2022-08-20T13:26:00;100881.59;;;23.85;44.54
61744;BME280;48718;54.994;73.352;2022-08-20T13:28:27;100872.84;;;23.83;44.82
61744;BME280;48718;54.994;73.352;2022-08-20T13:30:54;100868.75;;;23.80;44.51
61744;BME280;48718;54.994;73.352;2022-08-20T13:33:21;100865.47;;;23.78;44.52
61744;BME280;48718;54.994;73.352;2022-08-20T13:35:47;100873.94;;;23.77;44.32
61744;BME280;48718;54.994;73.352;2022-08-20T13:38:14;100861.34;;;23.76;44.32
61744;BME280;48718;54.994;73.352;2022-08-20T13:40:41;100858.06;;;23.74;44.66
61744;BME280;48718;54.994;73.352;2022-08-20T13:43:07;100869.00;;;23.74;44.36
61744;BME280;48718;54.994;73.352;2022-08-20T13:45:37;100867.34;;;23.73;44.76
61744;BME280;48718;54.994;73.352;2022-08-20T13:48:05;100878.28;;;23.73;44.31
61744;BME280;48718;54.994;73.352;2022-08-20T13:50:33;100865.72;;;23.72;44.14
61744;BME280;48718;54.994;73.352;2022-08-20T13:53:01;100867.91;;;23.69;44.20
61744;BME280;48718;54.994;73.352;2022-08-20T13:55:28;100869.53;;;23.71;44.04
61744;BME280;48718;54.994;73.352;2022-08-20T13:57:55;100867.34;;;23.67;44.43
61744;BME280;48718;54.994;73.352;2022-08-20T14:00:28;100871.16;;;23.66;44.24
61744;BME280;48718;54.994;73.352;2022-08-20T14:02:55;100866.28;;;23.63;44.48
61744;BME280;48718;54.994;73.352;2022-08-20T14:08:10;100867.91;;;23.59;44.35
61744;BME280;48718;54.994;73.352;2022-08-20T14:10:38;100867.91;;;23.59;44.39
61744;BME280;48718;54.994;73.352;2022-08-20T14:13:16;100866.25;;;23.58;44.31
61744;BME280;48718;54.994;73.352;2022-08-20T14:16:21;100863.78;;;23.57;44.35
61744;BME280;48718;54.994;73.352;2022-08-20T14:18:48;100853.16;;;23.55;44.06
61744;BME280;48718;54.994;73.352;2022-08-20T14:21:26;100862.44;;;23.54;44.28
61744;BME280;48718;54.994;73.352;2022-08-20T14:23:57;100853.69;;;23.52;44.19
61744;BME280;48718;54.994;73.352;2022-08-20T14:30:27;100862.94;;;23.46;44.28
61744;BME280;48718;54.994;73.352;2022-08-20T14:32:54;100867.84;;;23.44;44.19
61744;BME280;48718;54.994;73.352;2022-08-20T14:35:21;100867.03;;;23.43;44.42
61744;BME280;48718;54.994;73.352;2022-08-20T14:37:50;100862.41;;;23.44;43.91
61744;BME280;48718;54.994;73.352;2022-08-20T14:40:19;100870.59;;;23.44;44.15
61744;BME280;48718;54.994;73.352;2022-08-20T14:42:47;100869.78;;;23.43;44.24
61744;BME280;48718;54.994;73.352;2022-08-20T14:45:15;100879.88;;;23.43;43.93
61744;BME280;48718;54.994;73.352;2022-08-20T14:47:47;100877.41;;;23.41;44.24
61744;BME280;48718;54.994;73.352;2022-08-20T14:50:22;100880.41;;;23.39;44.43
61744;BME280;48718;54.994;73.352;2022-08-20T14:54:29;100880.13;;;23.36;43.97
61744;BME280;48718;54.994;73.352;2022-08-20T14:57:02;100886.38;;;23.36;44.14
61744;BME280;48718;54.994;73.352;2022-08-20T14:59:42;100883.09;;;23.34;43.98
61744;BME280;48718;54.994;73.352;2022-08-20T15:02:16;100884.75;;;23.35;44.02
61744;BME280;48718;54.994;73.352;2022-08-20T15:04:43;100885.03;;;23.34;44.21
61744;BME280;48718;54.994;73.352;2022-08-20T15:07:22;100883.63;;;23.31;44.17
61744;BME280;48718;54.994;73.352;2022-08-20T15:09:51;100891.81;;;23.31;43.98
61744;BME280;48718;54.994;73.352;2022-08-20T15:13:08;100889.66;;;23.28;44.25
61744;BME280;48718;54.994;73.352;2022-08-20T15:16:35;100882.56;;;23.27;44.11
61744;BME280;48718;54.994;73.352;2022-08-20T15:19:02;100886.09;;;23.28;44.24
61744;BME280;48718;54.994;73.352;2022-08-20T15:21:38;100897.28;;;23.26;44.27
61744;BME280;48718;54.994;73.352;2022-08-20T15:24:16;100886.63;;;23.24;44.10
61744;BME280;48718;54.994;73.352;2022-08-20T15:26:43;100894.00;;;23.24;44.25
61744;BME280;48718;54.994;73.352;2022-08-20T15:29:09;100885.25;;;23.22;44.13
61744;BME280;48718;54.994;73.352;2022-08-20T15:31:42;100885.25;;;23.22;44.12
61744;BME280;48718;54.994;73.352;2022-08-20T15:34:09;100891.53;;;23.22;44.42
61744;BME280;48718;54.994;73.352;2022-08-20T15:39:19;100894.19;;;23.17;44.01
61744;BME280;48718;54.994;73.352;2022-08-20T15:41:47;100881.41;;;23.18;44.36
61744;BME280;48718;54.994;73.352;2022-08-20T15:44:24;100887.41;;;23.20;44.22
61744;BME280;48718;54.994;73.352;2022-08-20T15:46:50;100892.88;;;23.20;44.23
61744;BME280;48718;54.994;73.352;2022-08-20T15:49:25;100884.94;;;23.18;43.88
61744;BME280;48718;54.994;73.352;2022-08-20T15:51:51;100895.59;;;23.20;44.06
61744;BME280;48718;54.994;73.352;2022-08-20T15:54:29;100885.75;;;23.19;44.36
61744;BME280;48718;54.994;73.352;2022-08-20T16:16:15;100892.28;;;23.13;43.95
61744;BME280;48718;54.994;73.352;2022-08-20T16:18:44;100898.09;;;23.27;44.29
61744;BME280;48718;54.994;73.352;2022-08-20T16:21:17;100889.72;;;23.54;43.81
61744;BME280;48718;54.994;73.352;2022-08-20T16:23:45;100891.16;;;23.77;43.06
61744;BME280;48718;54.994;73.352;2022-08-20T16:31:43;100894.75;;;24.30;43.53
61744;BME280;48718;54.994;73.352;2022-08-20T16:37:01;100896.91;;;24.53;44.17
61744;BME280;48718;54.994;73.352;2022-08-20T16:39:39;100899.34;;;24.65;44.71
61744;BME280;48718;54.994;73.352;2022-08-20T16:43:06;100901.25;;;24.80;44.06
61744;BME280;48718;54.994;73.352;2022-08-20T16:45:49;100903.44;;;24.88;43.82
61744;BME280;48718;54.994;73.352;2022-08-20T16:48:17;100896.00;;;24.94;44.00
61744;BME280;48718;54.994;73.352;2022-08-20T16:50:56;100892.47;;;24.99;43.71
61744;BME280;48718;54.994;73.352;2022-08-20T16:53:32;100891.06;;;25.01;43.12
61744;BME280;48718;54.994;73.352;2022-08-20T16:56:00;100893.53;;;25.03;43.25
61744;BME280;48718;54.994;73.352;2022-08-20T16:58:27;100888.06;;;25.03;42.72
61744;BME280;48718;54.994;73.352;2022-08-20T17:01:19;100890.50;;;25.05;42.91
61744;BME280;48718;54.994;73.352;2022-08-20T17:04:29;100902.56;;;25.03;42.35
61744;BME280;48718;54.994;73.352;2022-08-20T17:07:00;100892.69;;;25.02;42.42
61744;BME280;48718;54.994;73.352;2022-08-20T17:09:34;100898.72;;;24.99;42.46
61744;BME280;48718;54.994;73.352;2022-08-20T17:12:16;100897.94;;;24.99;42.35
61744;BME280;48718;54.994;73.352;2022-08-20T17:15:05;100897.94;;;24.99;41.90
61744;BME280;48718;54.994;73.352;2022-08-20T17:17:35;100897.38;;;24.97;42.00
61744;BME280;48718;54.994;73.352;2022-08-20T17:20:12;100903.97;;;24.96;41.90
61744;BME280;48718;54.994;73.352;2022-08-20T17:22:43;100893.56;;;24.93;41.88
61744;BME280;48718;54.994;73.352;2022-08-20T17:25:17;100898.50;;;24.91;42.05
61744;BME280;48718;54.994;73.352;2022-08-20T17:27:45;100896.31;;;24.87;42.07
61744;BME280;48718;54.994;73.352;2022-08-20T17:30:26;100894.97;;;24.85;41.84
61744;BME280;48718;54.994;73.352;2022-08-20T17:33:02;100889.75;;;24.83;41.77
61744;BME280;48718;54.994;73.352;2022-08-20T17:35:47;100893.88;;;24.81;41.54
61744;BME280;48718;54.994;73.352;2022-08-20T17:38:27;100894.13;;;24.79;41.63
61744;BME280;48718;54.994;73.352;2022-08-20T17:41:01;100896.63;;;24.76;41.65
61744;BME280;48718;54.994;73.352;2022-08-20T17:43:31;100894.44;;;24.72;41.26
61744;BME280;48718;54.994;73.352;2022-08-20T17:46:12;100895.78;;;24.70;41.68
61744;BME280;48718;54.994;73.352;2022-08-20T17:48:43;100888.69;;;24.69;41.32
61744;BME280;48718;54.994;73.352;2022-08-20T17:51:18;100895.50;;;24.66;41.55
61744;BME280;48718;54.994;73.352;2022-08-20T17:53:49;100898.53;;;24.65;41.24
61744;BME280;48718;54.994;73.352;2022-08-20T17:56:32;100888.69;;;24.64;41.39
61744;BME280;48718;54.994;73.352;2022-08-20T17:59:25;100888.16;;;24.62;41.29
61744;BME280;48718;54.994;73.352;2022-08-20T18:01:54;100891.97;;;24.61;41.25
61744;BME280;48718;54.994;73.352;2022-08-20T18:04:21;100891.16;;;24.60;41.34
61744;BME280;48718;54.994;73.352;2022-08-20T18:11:24;100885.41;;;24.56;40.99
61744;BME280;48718;54.994;73.352;2022-08-20T18:16:33;100883.78;;;24.55;41.36
61744;BME280;48718;54.994;73.352;2022-08-20T18:19:28;100891.97;;;24.55;41.63
61744;BME280;48718;54.994;73.352;2022-08-20T18:22:11;100885.97;;;24.53;42.22
61744;BME280;48718;54.994;73.352;2022-08-20T18:24:50;100880.50;;;24.53;42.67
61744;BME280;48718;54.994;73.352;2022-08-20T18:27:25;100875.03;;;24.53;42.98
61744;BME280;48718;54.994;73.352;2022-08-20T18:29:56;100875.56;;;24.55;43.14
61744;BME280;48718;54.994;73.352;2022-08-20T18:35:06;100876.66;;;24.54;43.74
61744;BME280;48718;54.994;73.352;2022-08-20T18:37:33;100876.13;;;24.57;43.97
61744;BME280;48718;54.994;73.352;2022-08-20T18:40:15;100873.38;;;24.57;44.28
61744;BME280;48718;54.994;73.352;2022-08-20T18:42:42;100865.19;;;24.57;44.39
61744;BME280;48718;54.994;73.352;2022-08-20T18:45:08;100869.56;;;24.58;44.17
61744;BME280;48718;54.994;73.352;2022-08-20T18:47:44;100867.63;;;24.59;43.81
61744;BME280;48718;54.994;73.352;2022-08-20T18:50:43;100870.66;;;24.57;44.33
61744;BME280;48718;54.994;73.352;2022-08-20T18:53:15;100872.28;;;24.58;44.25
61744;BME280;48718;54.994;73.352;2022-08-20T18:55:46;100868.47;;;24.60;44.09
61744;BME280;48718;54.994;73.352;2022-08-20T19:00:55;100868.47;;;24.60;44.10
61744;BME280;48718;54.994;73.352;2022-08-20T19:06:11;100860.50;;;24.58;44.31
61744;BME280;48718;54.994;73.352;2022-08-20T19:08:50;100863.00;;;24.60;44.38
61744;BME280;48718;54.994;73.352;2022-08-20T19:14:24;100855.88;;;24.58;44.01
61744;BME280;48718;54.994;73.352;2022-08-20T19:19:34;100853.41;;;24.57;44.08
61744;BME280;48718;54.994;73.352;2022-08-20T19:22:01;100850.41;;;24.58;44.22
61744;BME280;48718;54.994;73.352;2022-08-20T19:24:34;100855.03;;;24.58;43.79
61744;BME280;48718;54.994;73.352;2022-08-20T19:27:04;100844.94;;;24.58;43.86
61744;BME280;48718;54.994;73.352;2022-08-20T19:29:34;100848.78;;;24.57;44.29
61744;BME280;48718;54.994;73.352;2022-08-20T19:32:14;100850.41;;;24.58;44.10
61744;BME280;48718;54.994;73.352;2022-08-20T19:34:49;100837.81;;;24.57;44.11
61744;BME280;48718;54.994;73.352;2022-08-20T19:37:20;100828.53;;;24.58;43.88
61744;BME280;48718;54.994;73.352;2022-08-20T19:39:57;100835.09;;;24.57;44.26
61744;BME280;48718;54.994;73.352;2022-08-20T19:42:27;100829.34;;;24.59;44.04
61744;BME280;48718;54.994;73.352;2022-08-20T19:45:04;100824.69;;;24.60;43.97
61744;BME280;48718;54.994;73.352;2022-08-20T19:47:37;100820.88;;;24.61;43.98
61744;BME280;48718;54.994;73.352;2022-08-20T19:50:16;100827.97;;;24.62;43.90
61744;BME280;48718;54.994;73.352;2022-08-20T19:54:24;100825.78;;;24.64;44.18
61744;BME280;48718;54.994;73.352;2022-08-20T19:56:55;100823.03;;;24.64;43.69
61744;BME280;48718;54.994;73.352;2022-08-20T19:59:22;100817.03;;;24.62;43.62
61744;BME280;48718;54.994;73.352;2022-08-20T20:01:54;100818.66;;;24.63;44.06
61744;BME280;48718;54.994;73.352;2022-08-20T20:04:26;100811.56;;;24.62;43.70
61744;BME280;48718;54.994;73.352;2022-08-20T20:06:53;100812.38;;;24.62;43.74
61744;BME280;48718;54.994;73.352;2022-08-20T20:09:24;100814.00;;;24.63;43.98
61744;BME280;48718;54.994;73.352;2022-08-20T20:11:55;100813.19;;;24.63;43.58
61744;BME280;48718;54.994;73.352;2022-08-20T20:14:28;100812.91;;;24.64;43.53
61744;BME280;48718;54.994;73.352;2022-08-20T20:16:56;100805.53;;;24.65;43.92
61744;BME280;48718;54.994;73.352;2022-08-20T20:19:23;100811.00;;;24.65;43.57
61744;BME280;48718;54.994;73.352;2022-08-20T20:22:04;100807.72;;;24.63;43.38
61744;BME280;48718;54.994;73.352;2022-08-20T20:24:45;100812.09;;;24.64;43.42
61744;BME280;48718;54.994;73.352;2022-08-20T20:27:23;100816.47;;;24.65;43.40
61744;BME280;48718;54.994;73.352;2022-08-20T20:30:01;100818.66;;;24.63;43.92
61744;BME280;48718;54.994;73.352;2022-08-20T20:32:29;100815.41;;;24.61;43.96
61744;BME280;48718;54.994;73.352;2022-08-20T20:35:01;100822.50;;;24.62;43.55
61744;BME280;48718;54.994;73.352;2022-08-20T20:40:24;100818.41;;;24.59;43.88
61744;BME280;48718;54.994;73.352;2022-08-20T20:43:07;100823.06;;;24.58;43.55
61744;BME280;48718;54.994;73.352;2022-08-20T20:45:45;100817.59;;;24.58;44.02
61744;BME280;48718;54.994;73.352;2022-08-20T20:48:25;100820.03;;;24.60;43.43
61744;BME280;48718;54.994;73.352;2022-08-20T20:50:53;100820.88;;;24.61;43.77
61744;BME280;48718;54.994;73.352;2022-08-20T20:55:22;100823.06;;;24.58;43.47
61744;BME280;48718;54.994;73.352;2022-08-20T20:57:50;100822.22;;;24.58;43.59
61744;BME280;48718;54.994;73.352;2022-08-20T21:01:45;100813.75;;;24.60;43.64
61744;BME280;48718;54.994;73.352;2022-08-20T21:04:12;100821.41;;;24.57;43.65
61744;BME280;48718;54.994;73.352;2022-08-20T21:06:43;100819.78;;;24.56;43.63
61744;BME280;48718;54.994;73.352;2022-08-20T21:09:10;100818.13;;;24.55;43.34
61744;BME280;48718;54.994;73.352;2022-08-20T21:11:41;100812.66;;;24.55;43.31
61744;BME280;48718;54.994;73.352;2022-08-20T21:14:10;100817.03;;;24.56;43.46
61744;BME280;48718;54.994;73.352;2022-08-20T21:16:46;100814.31;;;24.56;43.82
61744;BME280;48718;54.994;73.352;2022-08-20T21:19:19;100816.22;;;24.56;43.35
61744;BME280;48718;54.994;73.352;2022-08-20T21:21:46;100820.59;;;24.57;43.46
61744;BME280;48718;54.994;73.352;2022-08-20T21:24:17;100818.69;;;24.57;43.62
61744;BME280;48718;54.994;73.352;2022-08-20T21:26:44;100810.47;;;24.57;43.31
61744;BME280;48718;54.994;73.352;2022-08-20T21:29:15;100816.75;;;24.58;43.38
61744;BME280;48718;54.994;73.352;2022-08-20T21:31:44;100813.75;;;24.60;43.40
61744;BME280;48718;54.994;73.352;2022-08-20T21:34:12;100813.19;;;24.63;43.36
61744;BME280;48718;54.994;73.352;2022-08-20T21:36:39;100806.09;;;24.62;42.94
61744;BME280;48718;54.994;73.352;2022-08-20T21:39:17;100810.47;;;24.63;43.07
61744;BME280;48718;54.994;73.352;2022-08-20T21:41:55;100814.84;;;24.64;43.11
61744;BME280;48718;54.994;73.352;2022-08-20T21:44:25;100816.47;;;24.65;43.22
61744;BME280;48718;54.994;73.352;2022-08-20T21:46:52;100818.13;;;24.66;43.35
61744;BME280;48718;54.994;73.352;2022-08-20T21:49:20;100806.34;;;24.65;42.76
61744;BME280;48718;54.994;73.352;2022-08-20T21:51:48;100804.44;;;24.66;43.15
61744;BME280;48718;54.994;73.352;2022-08-20T21:54:25;100803.34;;;24.67;43.04
61744;BME280;48718;54.994;73.352;2022-08-20T21:57:08;100806.34;;;24.65;42.91
61744;BME280;48718;54.994;73.352;2022-08-20T21:59:56;100801.72;;;24.66;42.78
61744;BME280;48718;54.994;73.352;2022-08-20T22:02:33;100803.34;;;24.67;42.73
61744;BME280;48718;54.994;73.352;2022-08-20T22:04:59;100797.88;;;24.67;42.97
61744;BME280;48718;54.994;73.352;2022-08-20T22:07:26;100803.34;;;24.67;43.00
61744;BME280;48718;54.994;73.352;2022-08-20T22:09:53;100804.97;;;24.68;43.11
61744;BME280;48718;54.994;73.352;2022-08-20T22:12:22;100808.81;;;24.67;43.00
61744;BME280;48718;54.994;73.352;2022-08-20T22:14:49;100806.88;;;24.67;42.63
61744;BME280;48718;54.994;73.352;2022-08-20T22:17:16;100803.34;;;24.67;42.97
61744;BME280;48718;54.994;73.352;2022-08-20T22:19:43;100808.81;;;24.67;42.64
61744;BME280;48718;54.994;73.352;2022-08-20T22:22:17;100804.44;;;24.66;42.83
61744;BME280;48718;54.994;73.352;2022-08-20T22:24:45;100805.78;;;24.68;42.92
61744;BME280;48718;54.994;73.352;2022-08-20T22:29:32;100799.50;;;24.68;42.78
61744;BME280;48718;54.994;73.352;2022-08-20T22:31:59;100789.66;;;24.67;42.55
61744;BME280;48718;54.994;73.352;2022-08-20T22:34:27;100799.50;;;24.68;42.83
61744;BME280;48718;54.994;73.352;2022-08-20T22:36:57;100799.50;;;24.68;42.77
61744;BME280;48718;54.994;73.352;2022-08-20T22:39:24;100792.41;;;24.67;43.09
61744;BME280;48718;54.994;73.352;2022-08-20T22:41:51;100806.63;;;24.69;42.55
61744;BME280;48718;54.994;73.352;2022-08-20T22:44:18;100799.50;;;24.68;42.39
61744;BME280;48718;54.994;73.352;2022-08-20T22:47:01;100800.84;;;24.70;42.67
61744;BME280;48718;54.994;73.352;2022-08-20T22:49:31;100788.56;;;24.68;42.70
61744;BME280;48718;54.994;73.352;2022-08-20T22:51:59;100790.22;;;24.69;42.61
61744;BME280;48718;54.994;73.352;2022-08-20T22:59:26;100790.22;;;24.69;42.56
61744;BME280;48718;54.994;73.352;2022-08-20T23:01:53;100788.56;;;24.68;42.38
61744;BME280;48718;54.994;73.352;2022-08-20T23:04:27;100786.94;;;24.67;42.61
61744;BME280;48718;54.994;73.352;2022-08-20T23:07:01;100785.28;;;24.66;42.43
61744;BME280;48718;54.994;73.352;2022-08-20T23:09:29;100789.13;;;24.65;42.77
61744;BME280;48718;54.994;73.352;2022-08-20T23:14:26;100786.09;;;24.66;42.89
61744;BME280;48718;54.994;73.352;2022-08-20T23:17:03;100781.47;;;24.67;42.20
61744;BME280;48718;54.994;73.352;2022-08-20T23:19:30;100783.09;;;24.68;42.63
61744;BME280;48718;54.994;73.352;2022-08-20T23:21:56;100782.25;;;24.67;42.47
61744;BME280;48718;54.994;73.352;2022-08-20T23:24:28;100777.09;;;24.66;42.67
61744;BME280;48718;54.994;73.352;2022-08-20T23:26:55;100779.81;;;24.66;42.55
61744;BME280;48718;54.994;73.352;2022-08-20T23:31:44;100777.09;;;24.66;42.05
61744;BME280;48718;54.994;73.352;2022-08-20T23:34:11;100777.09;;;24.66;42.26
61744;BME280;48718;54.994;73.352;2022-08-20T23:36:38;100779.00;;;24.65;42.20
61744;BME280;48718;54.994;73.352;2022-08-20T23:39:04;100775.72;;;24.63;42.49
61744;BME280;48718;54.994;73.352;2022-08-20T23:41:31;100766.72;;;24.63;42.35
61744;BME280;48718;54.994;73.352;2022-08-20T23:44:03;100769.44;;;24.63;42.45
61744;BME280;48718;54.994;73.352;2022-08-20T23:46:32;100762.34;;;24.62;42.49
61744;BME280;48718;54.994;73.352;2022-08-20T23:49:00;100774.91;;;24.63;42.29
61744;BME280;48718;54.994;73.352;2022-08-20T23:51:27;100769.69;;;24.61;42.57
61744;BME280;48718;54.994;73.352;2022-08-20T23:53:54;100767.81;;;24.62;42.52
61744;BME280;48718;54.994;73.352;2022-08-20T23:56:21;100769.44;;;24.63;42.46
61744;BME280;48718;54.994;73.352;2022-08-20T23:58:53;100779.53;;;24.62;42.13
